createdAt,value
2018-07-14T04:10:45.214Z,1072
2018-07-14T04:11:10.732Z,1084
2018-07-14T04:11:36.266Z,1100
2018-07-14T04:12:01.743Z,1128
2018-07-14T04:12:27.242Z,1168
2018-07-14T04:12:52.679Z,1212
2018-07-14T04:13:18.126Z,1268
2018-07-14T04:13:43.610Z,1320
2018-07-14T04:14:09.099Z,1364
2018-07-14T04:14:34.655Z,1396
2018-07-14T04:15:00.113Z,1444
2018-07-14T04:15:25.596Z,1508
2018-07-14T04:15:51.014Z,1556
2018-07-14T04:16:16.508Z,1620
2018-07-14T04:16:41.991Z,1688
2018-07-14T04:17:07.476Z,1772
2018-07-14T04:17:33.000Z,1840
2018-07-14T04:17:58.517Z,1900
2018-07-14T04:18:23.982Z,1932
2018-07-14T04:18:49.490Z,1932
2018-07-14T04:19:14.962Z,1932
2018-07-14T04:19:40.454Z,1908
2018-07-14T04:20:05.905Z,1856
2018-07-14T04:20:31.377Z,1800
2018-07-14T04:20:56.864Z,1740
2018-07-14T04:21:22.374Z,1676
2018-07-14T04:21:47.828Z,1632
2018-07-14T04:22:13.289Z,1592
2018-07-14T04:22:38.789Z,1564
2018-07-14T04:23:04.340Z,1548
2018-07-14T04:23:29.767Z,1548
2018-07-14T04:23:55.341Z,1568
2018-07-14T04:24:20.778Z,1608
2018-07-14T04:24:46.297Z,1676
2018-07-14T04:25:11.751Z,1776
2018-07-14T04:25:37.280Z,1888
2018-07-14T04:26:02.706Z,2000
2018-07-14T04:26:28.161Z,2120
2018-07-14T04:26:53.639Z,2248
2018-07-14T04:27:19.123Z,2376
2018-07-14T04:27:44.613Z,2476
2018-07-14T04:28:10.085Z,2536
2018-07-14T04:28:35.544Z,2592
2018-07-14T04:29:01.045Z,2652
2018-07-14T04:29:26.511Z,2708
2018-07-14T04:29:51.975Z,2752
2018-07-14T04:30:17.452Z,2796
2018-07-14T04:30:42.928Z,2852
2018-07-14T04:31:08.436Z,2880
2018-07-14T04:31:33.917Z,2912
2018-07-14T04:31:59.474Z,2944
2018-07-14T04:32:24.884Z,2976
2018-07-14T04:32:50.345Z,2980
2018-07-14T04:33:15.824Z,2956
2018-07-14T04:33:41.411Z,2980
2018-07-14T04:34:07.699Z,2984
2018-07-14T04:34:32.960Z,2976
2018-07-14T04:34:58.653Z,2980
2018-07-14T04:35:24.292Z,3000
2018-07-14T04:35:49.996Z,2936
2018-07-14T04:36:15.403Z,2896
2018-07-14T04:36:40.869Z,2820
2018-07-14T04:37:06.383Z,2752
2018-07-14T04:37:31.847Z,2676
2018-07-14T04:37:57.321Z,2580
2018-07-14T04:38:22.813Z,2520
2018-07-14T04:38:48.272Z,2536
2018-07-14T04:39:13.818Z,2504
2018-07-14T04:39:39.278Z,2452
2018-07-14T04:40:04.757Z,2416
2018-07-14T04:40:30.198Z,2380
2018-07-14T04:40:55.689Z,2356
2018-07-14T04:41:21.178Z,2328
2018-07-14T04:41:46.680Z,2304
2018-07-14T04:42:12.176Z,2364
2018-07-14T04:42:37.763Z,2424
2018-07-14T04:43:46.496Z,2640
2018-07-14T04:44:12.000Z,2736
2018-07-14T04:44:37.499Z,2828
2018-07-14T04:45:03.013Z,2920
2018-07-14T04:45:28.459Z,3012
2018-07-14T04:45:53.882Z,3136
2018-07-14T04:46:19.444Z,3212
2018-07-14T04:46:44.889Z,3316
2018-07-14T04:47:10.349Z,3404
2018-07-14T04:47:35.881Z,3488
2018-07-14T04:48:01.281Z,3700
2018-07-14T04:48:26.803Z,3784
2018-07-14T04:48:52.239Z,3792
2018-07-14T04:49:17.741Z,3732
2018-07-14T04:49:43.232Z,3684
2018-07-14T04:50:08.666Z,3780
2018-07-14T04:50:34.095Z,3808
2018-07-14T04:50:59.608Z,3844
2018-07-14T04:51:25.032Z,3864
2018-07-14T04:51:50.545Z,3860
2018-07-14T04:52:16.081Z,3800
2018-07-14T04:52:41.569Z,3720
2018-07-14T04:53:07.053Z,3600
2018-07-14T04:53:32.548Z,3464
2018-07-14T04:53:57.957Z,3376
2018-07-14T04:54:23.428Z,3388
2018-07-14T04:54:48.865Z,3412
2018-07-14T04:55:14.343Z,3452
2018-07-14T04:55:39.833Z,3496
2018-07-14T04:56:05.363Z,3532
2018-07-14T04:56:30.831Z,3564
2018-07-14T04:56:56.319Z,3604
2018-07-14T04:57:21.861Z,3648
2018-07-14T04:57:47.335Z,3736
2018-07-14T04:58:12.759Z,3960
2018-07-14T04:58:38.312Z,4020
2018-07-14T04:59:03.729Z,4056
2018-07-14T04:59:29.309Z,4028
2018-07-14T04:59:54.695Z,4028
2018-07-14T05:00:20.147Z,4052
2018-07-14T05:00:45.687Z,3992
2018-07-14T05:01:11.194Z,4112
2018-07-14T05:01:36.716Z,4088
2018-07-14T05:02:02.286Z,3996
2018-07-14T05:02:27.777Z,4008
2018-07-14T05:02:53.262Z,4008
2018-07-14T05:03:18.782Z,4072
2018-07-14T05:03:44.248Z,4284
2018-07-14T05:04:09.719Z,4516
2018-07-14T05:04:35.204Z,4620
2018-07-14T05:05:00.626Z,4676
2018-07-14T05:05:26.177Z,4756
2018-07-14T05:05:51.669Z,4844
2018-07-14T05:06:17.162Z,4904
2018-07-14T05:06:42.547Z,4948
2018-07-14T05:07:08.031Z,4992
2018-07-14T05:07:33.493Z,5040
2018-07-14T05:07:58.963Z,5088
2018-07-14T05:08:24.493Z,5128
2018-07-14T05:08:49.999Z,5160
2018-07-14T05:09:15.512Z,5188
2018-07-14T05:09:40.985Z,5220
2018-07-14T05:10:06.459Z,5256
2018-07-14T05:10:31.962Z,5296
2018-07-14T05:10:57.447Z,5332
2018-07-14T05:11:22.945Z,5372
2018-07-14T05:11:48.448Z,5408
2018-07-14T05:12:13.932Z,5428
2018-07-14T05:12:39.390Z,5424
2018-07-14T05:13:04.926Z,5420
2018-07-14T05:13:30.408Z,5404
2018-07-14T05:13:55.839Z,5404
2018-07-14T05:14:21.321Z,5400
2018-07-14T05:14:46.805Z,5448
2018-07-14T05:15:12.281Z,5488
2018-07-14T05:15:37.780Z,5512
2018-07-14T05:16:03.252Z,5552
2018-07-14T05:16:28.771Z,5608
2018-07-14T05:16:54.225Z,5648
2018-07-14T05:17:19.714Z,5712
2018-07-14T05:17:45.183Z,5716
2018-07-14T05:18:10.664Z,5736
2018-07-14T05:18:36.095Z,5760
2018-07-14T05:19:01.610Z,5780
2018-07-14T05:19:27.099Z,5788
2018-07-14T05:19:52.586Z,5808
2018-07-14T05:20:18.113Z,5840
2018-07-14T05:20:43.626Z,5860
2018-07-14T05:21:09.093Z,5864
2018-07-14T05:21:34.596Z,5856
2018-07-14T05:22:00.148Z,5864
2018-07-14T05:22:25.584Z,5904
2018-07-14T05:22:51.050Z,5936
2018-07-14T05:23:16.636Z,5972
2018-07-14T05:23:42.108Z,6004
2018-07-14T05:24:07.560Z,6028
2018-07-14T05:24:33.080Z,6028
2018-07-14T05:24:58.542Z,5996
2018-07-14T05:25:24.075Z,5932
2018-07-14T05:25:49.571Z,5860
2018-07-14T05:26:15.102Z,5932
2018-07-14T05:26:40.515Z,6000
2018-07-14T05:27:06.012Z,6200
2018-07-14T05:27:31.503Z,6288
2018-07-14T05:27:56.961Z,6364
2018-07-14T05:28:22.452Z,6408
2018-07-14T05:28:47.923Z,6464
2018-07-14T05:29:13.378Z,6528
2018-07-14T05:29:38.849Z,6580
2018-07-14T05:30:04.336Z,6600
2018-07-14T05:31:18.167Z,6676
2018-07-14T05:31:43.618Z,6704
2018-07-14T05:32:09.135Z,6768
2018-07-14T05:32:34.558Z,6804
2018-07-14T05:33:38.169Z,6972
2018-07-14T05:34:03.665Z,7060
2018-07-14T05:34:29.159Z,7096
2018-07-14T05:34:54.692Z,7128
2018-07-14T05:35:20.144Z,7132
2018-07-14T05:35:45.713Z,7152
2018-07-14T05:36:11.180Z,7244
2018-07-14T05:36:36.735Z,7336
2018-07-14T05:37:02.227Z,7436
2018-07-14T05:37:27.670Z,7572
2018-07-14T05:37:53.140Z,7660
2018-07-14T05:38:18.609Z,7848
2018-07-14T05:38:44.110Z,8000
2018-07-14T05:39:09.594Z,8140
2018-07-14T05:39:35.055Z,8228
2018-07-14T05:40:00.528Z,8296
2018-07-14T05:40:26.018Z,8352
2018-07-14T05:40:51.510Z,8392
2018-07-14T05:41:16.969Z,8388
2018-07-14T05:41:42.479Z,8380
2018-07-14T05:42:08.007Z,8448
2018-07-14T05:42:33.549Z,8468
2018-07-14T05:42:59.072Z,8568
2018-07-14T05:43:24.619Z,8656
2018-07-14T05:43:50.109Z,8744
2018-07-14T05:44:15.596Z,8796
2018-07-14T05:44:41.213Z,8780
2018-07-14T05:45:06.721Z,8800
2018-07-14T05:45:32.185Z,8808
2018-07-14T05:45:57.685Z,8844
2018-07-14T05:46:23.215Z,8928
2018-07-14T05:46:48.826Z,8904
2018-07-14T05:47:14.409Z,8692
2018-07-14T05:47:39.908Z,8512
2018-07-14T05:48:05.435Z,8504
2018-07-14T05:48:30.982Z,8588
2018-07-14T05:48:56.486Z,8868
2018-07-14T05:49:22.179Z,8852
2018-07-14T05:49:47.525Z,8700
2018-07-14T05:50:13.092Z,8752
2018-07-14T05:50:38.570Z,8532
2018-07-14T05:51:04.611Z,8488
2018-07-14T05:51:30.025Z,8320
2018-07-14T05:51:55.616Z,8736
2018-07-14T05:52:21.234Z,8432
2018-07-14T05:52:46.778Z,8768
2018-07-14T05:53:12.344Z,8764
2018-07-14T05:53:38.012Z,8724
2018-07-14T05:54:03.463Z,8972
2018-07-14T05:54:29.003Z,8904
2018-07-14T05:54:54.610Z,9244
2018-07-14T05:55:20.082Z,9364
2018-07-14T05:55:45.688Z,9324
2018-07-14T05:56:11.396Z,9372
2018-07-14T05:56:36.889Z,9516
2018-07-14T05:57:02.419Z,9616
2018-07-14T05:57:27.882Z,9680
2018-07-14T05:57:53.383Z,9696
2018-07-14T05:58:18.875Z,9572
2018-07-14T05:58:44.395Z,9140
2018-07-14T05:59:09.957Z,9668
2018-07-14T05:59:35.433Z,9624
2018-07-14T06:00:00.965Z,9764
2018-07-14T06:00:26.616Z,10076
2018-07-14T06:00:52.435Z,10208
2018-07-14T06:01:17.863Z,9728
2018-07-14T06:01:43.313Z,8988
2018-07-14T06:02:08.786Z,9560
2018-07-14T06:02:34.281Z,10348
2018-07-14T06:02:59.783Z,10116
2018-07-14T06:03:25.269Z,9084
2018-07-14T06:03:50.746Z,9740
2018-07-14T06:04:16.248Z,8656
2018-07-14T06:04:41.737Z,8324
2018-07-14T06:05:07.245Z,8456
2018-07-14T06:05:32.742Z,9004
2018-07-14T06:05:58.246Z,10192
2018-07-14T06:06:23.749Z,9880
2018-07-14T06:06:49.268Z,9780
2018-07-14T06:07:14.821Z,9752
2018-07-14T06:07:40.380Z,9044
2018-07-14T06:08:05.833Z,8204
2018-07-14T06:08:31.301Z,8524
2018-07-14T06:08:56.840Z,8036
2018-07-14T06:09:22.363Z,9676
2018-07-14T06:09:47.975Z,8592
2018-07-14T06:10:13.750Z,8524
2018-07-14T06:10:39.129Z,10432
2018-07-14T06:11:04.988Z,11128
2018-07-14T06:11:30.582Z,11584
2018-07-14T06:11:56.171Z,12104
2018-07-14T06:12:21.759Z,12428
2018-07-14T06:12:47.321Z,12400
2018-07-14T06:13:12.848Z,12312
2018-07-14T06:13:38.357Z,12384
2018-07-14T06:14:42.025Z,12264
2018-07-14T06:15:07.553Z,11928
2018-07-14T06:15:33.079Z,8780
2018-07-14T06:15:58.562Z,12308
2018-07-14T06:16:24.143Z,13344
2018-07-14T06:16:49.590Z,15116
2018-07-14T06:17:58.362Z,17408
2018-07-14T06:18:23.849Z,18944
2018-07-14T06:18:49.324Z,19648
2018-07-14T06:19:14.823Z,20384
2018-07-14T06:19:40.339Z,20928
2018-07-14T06:20:05.779Z,20800
2018-07-14T06:20:31.287Z,19936
2018-07-14T06:20:56.783Z,18880
2018-07-14T06:21:22.302Z,18336
2018-07-14T06:21:47.794Z,18592
2018-07-14T06:22:13.276Z,18784
2018-07-14T06:22:38.773Z,19392
2018-07-14T06:23:04.393Z,18944
2018-07-14T06:23:29.870Z,19040
2018-07-14T06:23:55.342Z,18976
2018-07-14T06:24:20.882Z,19008
2018-07-14T06:24:46.383Z,19360
2018-07-14T06:25:11.862Z,19488
2018-07-14T06:25:37.358Z,18176
2018-07-14T06:26:02.820Z,16928
2018-07-14T06:26:28.330Z,14988
2018-07-14T06:26:53.809Z,16448
2018-07-14T06:27:19.286Z,16384
2018-07-14T06:27:44.780Z,16832
2018-07-14T06:28:10.312Z,17152
2018-07-14T06:28:35.788Z,17184
2018-07-14T06:29:01.255Z,17024
2018-07-14T06:29:26.845Z,10024
2018-07-14T06:29:52.327Z,10476
2018-07-14T06:30:17.797Z,18752
2018-07-14T06:31:21.418Z,35776
2018-07-14T06:31:46.926Z,32640
2018-07-14T06:32:12.423Z,40896
2018-07-14T06:32:37.924Z,33312
2018-07-14T06:33:03.429Z,27136
2018-07-14T06:33:28.908Z,35264
2018-07-14T06:33:54.407Z,41760
2018-07-14T06:34:19.910Z,41952
2018-07-14T06:34:45.422Z,43008
2018-07-14T06:35:10.910Z,41792
2018-07-14T06:35:36.467Z,42752
2018-07-14T06:36:01.913Z,41888
2018-07-14T06:36:27.417Z,39040
2018-07-14T06:36:52.934Z,37504
2018-07-14T06:37:18.443Z,37952
2018-07-14T06:37:43.937Z,40896
2018-07-14T06:38:09.420Z,41536
2018-07-14T06:38:34.935Z,43104
2018-07-14T06:39:00.401Z,43360
2018-07-14T06:39:25.925Z,43648
2018-07-14T06:39:51.455Z,43104
2018-07-14T06:40:16.927Z,41536
2018-07-14T06:40:42.422Z,41120
2018-07-14T06:41:07.894Z,40128
2018-07-14T06:41:33.324Z,39008
2018-07-14T06:41:58.791Z,40736
2018-07-14T06:42:24.429Z,40032
2018-07-14T06:42:50.094Z,37312
2018-07-14T06:43:15.579Z,31392
2018-07-14T06:43:41.068Z,30496
2018-07-14T06:44:06.491Z,28864
2018-07-14T06:44:32.054Z,30016
2018-07-14T06:44:57.448Z,33664
2018-07-14T06:45:22.953Z,32704
2018-07-14T06:45:48.488Z,34368
2018-07-14T06:46:13.958Z,34688
2018-07-14T06:46:39.467Z,35392
2018-07-14T06:47:04.990Z,36128
2018-07-14T06:47:30.457Z,36800
2018-07-14T06:47:55.969Z,36608
2018-07-14T06:48:21.379Z,36800
2018-07-14T06:48:46.881Z,35840
2018-07-14T06:49:12.416Z,35296
2018-07-14T06:49:37.853Z,33504
2018-07-14T06:50:03.284Z,31616
2018-07-14T06:50:28.797Z,30528
2018-07-14T06:50:54.340Z,29760
2018-07-14T06:51:19.753Z,29696
2018-07-14T06:51:45.250Z,29504
2018-07-14T06:52:10.755Z,29344
2018-07-14T06:52:36.217Z,29856
2018-07-14T06:53:01.757Z,29920
2018-07-14T06:53:27.336Z,29728
2018-07-14T06:53:52.827Z,29920
2018-07-14T06:54:18.360Z,29152
2018-07-14T06:54:43.786Z,29152
2018-07-14T06:55:09.269Z,28608
2018-07-14T06:55:34.750Z,28352
2018-07-14T06:56:00.304Z,27872
2018-07-14T06:56:25.868Z,27296
2018-07-14T06:56:51.263Z,26304
2018-07-14T06:57:16.725Z,25760
2018-07-14T06:57:42.195Z,25152
2018-07-14T06:58:07.689Z,24512
2018-07-14T06:58:33.143Z,23872
2018-07-14T06:58:58.640Z,22560
2018-07-14T06:59:24.177Z,20800
2018-07-14T06:59:49.621Z,18688
2018-07-14T07:00:15.147Z,16576
2018-07-14T07:00:40.668Z,14576
2018-07-14T07:01:06.239Z,13008
2018-07-14T07:01:31.827Z,12544
2018-07-14T07:01:57.294Z,12232
2018-07-14T07:02:22.683Z,12104
2018-07-14T07:02:48.220Z,11932
2018-07-14T07:03:13.761Z,11816
2018-07-14T07:03:39.196Z,11688
2018-07-14T07:04:04.678Z,11532
2018-07-14T07:04:30.193Z,11408
2018-07-14T07:04:55.751Z,11304
2018-07-14T07:05:21.208Z,11204
2018-07-14T07:05:46.853Z,11016
2018-07-14T07:06:12.462Z,10836
2018-07-14T07:06:37.958Z,10764
2018-07-14T07:07:03.439Z,10612
2018-07-14T07:07:28.935Z,10540
2018-07-14T07:08:42.735Z,10352
2018-07-14T07:09:08.214Z,10372
2018-07-14T07:09:33.702Z,10360
2018-07-14T07:09:59.134Z,10288
2018-07-14T07:10:24.614Z,10252
2018-07-14T07:10:50.081Z,10244
2018-07-14T07:11:15.836Z,10244
2018-07-14T07:11:41.238Z,10156
2018-07-14T07:12:06.868Z,10148
2018-07-14T07:12:32.252Z,10108
2018-07-14T07:12:57.698Z,10092
2018-07-14T07:13:23.242Z,10056
2018-07-14T07:13:48.740Z,10032
2018-07-14T07:14:14.185Z,10056
2018-07-14T07:14:39.644Z,10040
2018-07-14T07:15:05.166Z,10000
2018-07-14T07:16:08.776Z,10020
2018-07-14T07:16:34.269Z,10024
2018-07-14T07:16:59.753Z,10104
2018-07-14T07:17:25.242Z,10164
2018-07-14T07:17:50.794Z,10228
2018-07-14T07:18:16.192Z,10340
2018-07-14T07:18:41.666Z,10408
2018-07-14T07:19:07.116Z,10392
2018-07-14T07:19:32.562Z,10476
2018-07-14T07:19:58.060Z,10504
2018-07-14T07:20:23.542Z,10548
2018-07-14T07:20:49.001Z,10596
2018-07-14T07:21:14.606Z,10616
2018-07-14T07:21:40.047Z,10632
2018-07-14T07:22:05.575Z,10484
2018-07-14T07:22:31.035Z,10596
2018-07-14T07:22:56.520Z,10640
2018-07-14T07:23:22.023Z,10700
2018-07-14T07:23:47.499Z,10784
2018-07-14T07:24:12.985Z,10764
2018-07-14T07:24:38.496Z,10776
2018-07-14T07:25:04.005Z,10788
2018-07-14T07:25:29.498Z,10944
2018-07-14T07:25:55.015Z,10940
2018-07-14T07:26:20.464Z,10848
2018-07-14T07:26:45.958Z,10920
2018-07-14T07:27:11.473Z,11012
2018-07-14T07:27:36.951Z,10996
2018-07-14T07:28:02.490Z,11060
2018-07-14T07:28:28.003Z,10928
2018-07-14T07:28:53.631Z,10888
2018-07-14T07:29:19.083Z,10756
2018-07-14T07:29:44.580Z,10564
2018-07-14T07:30:10.150Z,10724
2018-07-14T07:30:35.656Z,11064
2018-07-14T07:31:01.163Z,11124
2018-07-14T07:31:26.623Z,11060
2018-07-14T07:31:52.100Z,11084
2018-07-14T07:32:17.592Z,11184
2018-07-14T07:33:26.325Z,12672
2018-07-14T07:33:51.861Z,14564
2018-07-14T07:34:17.362Z,16480
2018-07-14T07:34:42.905Z,18592
2018-07-14T07:35:08.375Z,19168
2018-07-14T07:35:33.899Z,21312
2018-07-14T07:35:59.393Z,22112
2018-07-14T07:36:24.907Z,22880
2018-07-14T07:36:50.385Z,22688
2018-07-14T07:37:15.889Z,22688
2018-07-14T07:37:41.373Z,22656
2018-07-14T07:38:07.000Z,22880
2018-07-14T07:38:32.475Z,22720
2018-07-14T07:38:57.944Z,22912
2018-07-14T07:39:23.476Z,22976
2018-07-14T07:39:48.965Z,23264
2018-07-14T07:40:14.462Z,23424
2018-07-14T07:40:39.978Z,23808
2018-07-14T07:41:05.494Z,23872
2018-07-14T07:41:30.996Z,24352
2018-07-14T07:41:56.463Z,24768
2018-07-14T07:42:22.043Z,25152
2018-07-14T07:42:47.490Z,25856
2018-07-14T07:44:11.520Z,25472
2018-07-14T07:44:37.007Z,25312
2018-07-14T07:45:02.506Z,25920
2018-07-14T07:45:28.038Z,25664
2018-07-14T07:45:53.517Z,25312
2018-07-14T07:46:19.044Z,25536
2018-07-14T07:46:44.516Z,25664
2018-07-14T07:47:10.043Z,26496
2018-07-14T07:47:35.510Z,25760
2018-07-14T07:48:01.040Z,20704
2018-07-14T07:48:26.480Z,14180
2018-07-14T07:48:51.954Z,24000
2018-07-14T07:49:17.445Z,13024
2018-07-14T07:49:42.967Z,11500
2018-07-14T07:50:08.466Z,16012
2018-07-14T07:51:32.532Z,25856
2018-07-14T07:51:57.987Z,24320
2018-07-14T07:52:23.490Z,15660
2018-07-14T07:52:49.000Z,19904
2018-07-14T07:53:14.486Z,22496
2018-07-14T07:53:40.025Z,23328
2018-07-14T07:54:05.542Z,23584
2018-07-14T07:54:31.050Z,23616
2018-07-14T07:54:56.535Z,23648
2018-07-14T07:55:22.019Z,23264
2018-07-14T07:55:47.503Z,22624
2018-07-14T07:56:12.982Z,21632
2018-07-14T07:56:38.596Z,20480
2018-07-14T07:57:03.989Z,19872
2018-07-14T07:57:29.509Z,19328
2018-07-14T07:57:55.001Z,18656
2018-07-14T07:58:20.466Z,17664
2018-07-14T07:58:45.960Z,17376
2018-07-14T07:59:11.467Z,17216
2018-07-14T07:59:36.955Z,17184
2018-07-14T08:00:02.465Z,17088
2018-07-14T08:00:27.975Z,16928
2018-07-14T08:00:53.464Z,16672
2018-07-14T08:01:18.935Z,16512
2018-07-14T08:01:44.452Z,16452
2018-07-14T08:03:03.383Z,15932
2018-07-14T08:03:28.900Z,15920
2018-07-14T08:03:54.492Z,15872
2018-07-14T08:04:19.958Z,15864
2018-07-14T08:04:45.460Z,15944
2018-07-14T08:05:10.974Z,16048
2018-07-14T08:05:36.449Z,16112
2018-07-14T08:06:01.904Z,15976
2018-07-14T08:06:27.353Z,16040
2018-07-14T08:06:52.847Z,15776
2018-07-14T08:07:18.365Z,15564
2018-07-14T08:07:43.861Z,15244
2018-07-14T08:08:57.889Z,15012
2018-07-14T08:09:23.369Z,14960
2018-07-14T08:09:48.858Z,15160
2018-07-14T08:10:14.343Z,15212
2018-07-14T08:10:39.833Z,15316
2018-07-14T08:11:05.299Z,15288
2018-07-14T08:11:30.785Z,15184
2018-07-14T08:11:56.256Z,15216
2018-07-14T08:12:21.746Z,15100
2018-07-14T08:12:47.228Z,15028
2018-07-14T08:13:12.760Z,15164
2018-07-14T08:13:38.252Z,15372
2018-07-14T08:14:03.739Z,15464
2018-07-14T08:14:29.238Z,15800
2018-07-14T08:14:54.742Z,16280
2018-07-14T08:15:20.240Z,17184
2018-07-14T08:15:45.764Z,17568
2018-07-14T08:16:54.433Z,19200
2018-07-14T08:17:19.989Z,19360
2018-07-14T08:17:45.504Z,19392
2018-07-14T08:18:11.027Z,19040
2018-07-14T08:18:36.517Z,19104
2018-07-14T08:19:02.014Z,18400
2018-07-14T08:19:27.553Z,13540
2018-07-14T08:19:53.031Z,9624
2018-07-14T08:20:18.520Z,16928
2018-07-14T08:20:44.005Z,14952
2018-07-14T08:21:09.511Z,13208
2018-07-14T08:21:34.961Z,10816
2018-07-14T08:22:00.492Z,12388
2018-07-14T08:22:25.975Z,12428
2018-07-14T08:22:51.653Z,12388
2018-07-14T08:23:16.970Z,12492
2018-07-14T08:23:42.469Z,11952
2018-07-14T08:24:07.946Z,12260
2018-07-14T08:24:33.491Z,10652
2018-07-14T08:24:58.970Z,10228
2018-07-14T08:25:24.445Z,12208
2018-07-14T08:25:49.995Z,11828
2018-07-14T08:26:15.715Z,11796
2018-07-14T08:26:41.197Z,11880
2018-07-14T08:27:06.698Z,11940
2018-07-14T08:27:32.198Z,11796
2018-07-14T08:27:57.700Z,11940
2018-07-14T08:28:23.272Z,11540
2018-07-14T08:28:48.723Z,11132
2018-07-14T08:29:14.215Z,11592
2018-07-14T08:29:39.712Z,9704
2018-07-14T08:30:05.274Z,11896
2018-07-14T08:30:30.726Z,11920
2018-07-14T08:30:56.243Z,11848
2018-07-14T08:31:21.742Z,11916
2018-07-14T08:31:47.221Z,12000
2018-07-14T08:32:12.745Z,12016
2018-07-14T08:32:38.281Z,11980
2018-07-14T08:33:03.742Z,11848
2018-07-14T08:33:29.232Z,11760
2018-07-14T08:33:54.724Z,11488
2018-07-14T08:35:13.705Z,11200
2018-07-14T08:35:39.216Z,11196
2018-07-14T08:36:04.687Z,11268
2018-07-14T08:36:30.202Z,11372
2018-07-14T08:36:55.704Z,11344
2018-07-14T08:37:21.195Z,11320
2018-07-14T08:37:46.705Z,11256
2018-07-14T08:38:12.273Z,11144
2018-07-14T08:38:37.669Z,11180
2018-07-14T08:39:03.158Z,11212
2018-07-14T08:39:28.645Z,11000
2018-07-14T08:39:54.121Z,10740
2018-07-14T08:40:19.597Z,10664
2018-07-14T08:40:45.101Z,10560
2018-07-14T08:41:10.609Z,10476
2018-07-14T08:41:36.110Z,10520
2018-07-14T08:42:01.669Z,10408
2018-07-14T08:42:27.139Z,10276
2018-07-14T08:42:52.626Z,10212
2018-07-14T08:43:18.088Z,10196
2018-07-14T08:43:43.603Z,10220
2018-07-14T08:44:09.099Z,10108
2018-07-14T08:44:34.572Z,9972
2018-07-14T08:45:00.095Z,9832
2018-07-14T08:45:25.599Z,9704
2018-07-14T08:45:51.132Z,9728
2018-07-14T08:46:16.558Z,9760
2018-07-14T08:46:42.091Z,9816
2018-07-14T08:47:07.601Z,9876
2018-07-14T08:47:33.217Z,9764
2018-07-14T08:47:58.754Z,9480
2018-07-14T08:48:24.240Z,9488
2018-07-14T08:48:49.710Z,9388
2018-07-14T08:49:15.213Z,9172
2018-07-14T08:49:40.753Z,8976
2018-07-14T08:50:06.220Z,8944
2018-07-14T08:50:31.760Z,8820
2018-07-14T08:50:57.171Z,8748
2018-07-14T08:51:22.717Z,8672
2018-07-14T08:51:48.175Z,8748
2018-07-14T08:53:07.135Z,8980
2018-07-14T08:53:32.629Z,9144
2018-07-14T08:53:58.143Z,9372
2018-07-14T08:54:23.628Z,9476
2018-07-14T08:54:49.225Z,9260
2018-07-14T08:55:14.708Z,8828
2018-07-14T08:55:40.227Z,8340
2018-07-14T08:56:05.734Z,7992
2018-07-14T08:56:31.236Z,7784
2018-07-14T08:56:56.720Z,7704
2018-07-14T08:57:22.280Z,7808
2018-07-14T08:57:47.806Z,7892
2018-07-14T08:58:13.379Z,7996
2018-07-14T08:58:38.819Z,7984
2018-07-14T08:59:04.352Z,8076
2018-07-14T08:59:29.892Z,8124
2018-07-14T08:59:55.380Z,8064
2018-07-14T09:00:20.897Z,7440
2018-07-14T09:00:46.394Z,7200
2018-07-14T09:01:11.943Z,7408
2018-07-14T09:01:37.480Z,7676
2018-07-14T09:02:02.973Z,7724
2018-07-14T09:02:28.458Z,7756
2018-07-14T09:02:54.038Z,7808
2018-07-14T09:03:19.587Z,7780
2018-07-14T09:03:45.254Z,7752
2018-07-14T09:04:10.598Z,7608
2018-07-14T09:04:36.100Z,7480
2018-07-14T09:05:01.640Z,7368
2018-07-14T09:05:27.149Z,7304
2018-07-14T09:05:52.645Z,7196
2018-07-14T09:06:18.167Z,7244
2018-07-14T09:06:43.682Z,7180
2018-07-14T09:07:09.205Z,7116
2018-07-14T09:07:34.779Z,7064
2018-07-14T09:08:00.361Z,6996
2018-07-14T09:08:25.856Z,6888
2018-07-14T09:08:51.363Z,6876
2018-07-14T09:09:16.858Z,6804
2018-07-14T09:09:42.366Z,6748
2018-07-14T09:10:07.902Z,6732
2018-07-14T09:10:33.425Z,6676
2018-07-14T09:10:59.068Z,6668
2018-07-14T09:11:24.527Z,6656
2018-07-14T09:11:50.019Z,6684
2018-07-14T09:12:15.558Z,6684
2018-07-14T09:12:41.049Z,6676
2018-07-14T09:13:06.539Z,6696
2018-07-14T09:13:32.027Z,6708
2018-07-14T09:13:57.522Z,6712
2018-07-14T09:14:23.038Z,6732
2018-07-14T09:14:48.541Z,6808
2018-07-14T09:15:14.030Z,6836
2018-07-14T09:15:39.506Z,6876
2018-07-14T09:16:05.013Z,6844
2018-07-14T09:16:30.498Z,6824
2018-07-14T09:16:56.005Z,6736
2018-07-14T09:17:21.492Z,6696
2018-07-14T09:17:46.995Z,6604
2018-07-14T09:18:12.514Z,6604
2018-07-14T09:18:38.018Z,6588
2018-07-14T09:19:03.493Z,6600
2018-07-14T09:19:28.980Z,6620
2018-07-14T09:19:54.468Z,6628
2018-07-14T09:20:20.015Z,6568
2018-07-14T09:20:45.446Z,6556
2018-07-14T09:21:10.961Z,6520
2018-07-14T09:21:36.427Z,6520
2018-07-14T09:22:01.955Z,6496
2018-07-14T09:22:27.438Z,6492
2018-07-14T09:22:52.917Z,6480
2018-07-14T09:23:18.484Z,6468
2018-07-14T09:23:43.965Z,6408
2018-07-14T09:24:09.443Z,6428
2018-07-14T09:24:34.917Z,6436
2018-07-14T09:25:00.398Z,6452
2018-07-14T09:25:25.867Z,6464
2018-07-14T09:25:51.396Z,6452
2018-07-14T09:26:16.902Z,6468
2018-07-14T09:26:42.404Z,6428
2018-07-14T09:27:07.878Z,6404
2018-07-14T09:27:33.406Z,6380
2018-07-14T09:27:58.910Z,6448
2018-07-14T09:28:24.446Z,6388
2018-07-14T09:28:49.932Z,6340
2018-07-14T09:29:15.405Z,6324
2018-07-14T09:29:41.002Z,6432
2018-07-14T09:30:06.534Z,6408
2018-07-14T09:30:32.010Z,6352
2018-07-14T09:30:57.542Z,6264
2018-07-14T09:31:23.043Z,6224
2018-07-14T09:31:48.551Z,6080
2018-07-14T09:32:14.040Z,6048
2018-07-14T09:32:39.643Z,6208
2018-07-14T09:33:05.047Z,6160
2018-07-14T09:33:30.571Z,6180
2018-07-14T09:33:56.100Z,6172
2018-07-14T09:34:21.574Z,6156
2018-07-14T09:34:47.079Z,6132
2018-07-14T09:35:12.557Z,6100
2018-07-14T09:35:38.067Z,6112
2018-07-14T09:36:46.805Z,6132
2018-07-14T09:37:12.279Z,6148
2018-07-14T09:37:37.786Z,6176
2018-07-14T09:38:03.311Z,6200
2018-07-14T09:38:28.810Z,6240
2018-07-14T09:38:54.302Z,6232
2018-07-14T09:39:19.787Z,6244
2018-07-14T09:39:45.299Z,6232
2018-07-14T09:40:10.858Z,6264
2018-07-14T09:40:36.348Z,6224
2018-07-14T09:41:55.360Z,6200
2018-07-14T09:42:20.882Z,6224
2018-07-14T09:42:46.313Z,6232
2018-07-14T09:43:11.793Z,6228
2018-07-14T09:43:37.283Z,6260
2018-07-14T09:44:02.848Z,6276
2018-07-14T09:44:28.344Z,6288
2018-07-14T09:44:53.844Z,6272
2018-07-14T09:45:19.491Z,6256
2018-07-14T09:45:44.986Z,6224
2018-07-14T09:46:10.483Z,6196
2018-07-14T09:46:36.105Z,6144
2018-07-14T09:47:01.762Z,6100
2018-07-14T09:47:27.283Z,6100
2018-07-14T09:47:52.778Z,6084
2018-07-14T09:48:18.235Z,6112
2018-07-14T09:48:43.779Z,6136
2018-07-14T09:49:09.196Z,6188
2018-07-14T09:49:34.696Z,6196
2018-07-14T09:50:00.181Z,6276
2018-07-14T09:50:25.677Z,6324
2018-07-14T09:50:51.184Z,6360
2018-07-14T09:51:16.704Z,6432
2018-07-14T09:51:42.167Z,6428
2018-07-14T09:52:07.668Z,6500
2018-07-14T09:52:33.225Z,6592
2018-07-14T09:53:36.856Z,6900
2018-07-14T09:54:02.327Z,7036
2018-07-14T09:54:27.830Z,7140
2018-07-14T09:54:53.327Z,7168
2018-07-14T09:55:18.841Z,7148
2018-07-14T09:55:44.274Z,7096
2018-07-14T09:56:09.785Z,7040
2018-07-14T09:56:35.325Z,7028
2018-07-14T09:57:59.421Z,7384
2018-07-14T09:58:24.904Z,7548
2018-07-14T09:58:50.378Z,7676
2018-07-14T09:59:59.123Z,7932
2018-07-14T10:00:24.619Z,7956
2018-07-14T10:00:50.104Z,7968
2018-07-14T10:01:15.603Z,7996
2018-07-14T10:01:41.094Z,8004